Time;durP1;ratioP1;P1;durP2;ratioP2;P2;SDS_P1;SDS_P2;PMS_P1;PMS_P2;Temp;Humidity;BMP_temperature;BMP_pressure;BME280_temperature;BME280_humidity;BME280_pressure;Samples;Min_cycle;Max_cycle;Signal;HPM_P1;HPM_P2
2021/12/12 00:01:54;;;;;;;21.27;16.83;;;;;;;0.33;100.00;98760.72;4981691;28;20441;-70
2021/12/12 00:04:32;;;;;;;23.20;17.83;;;;;;;0.29;100.00;98757.41;4995242;28;20311;-69
2021/12/12 00:07:02;;;;;;;24.30;16.20;;;;;;;0.24;100.00;98755.06;4990846;28;20471;-68
2021/12/12 00:09:33;;;;;;;23.17;16.77;;;;;;;0.35;100.00;98758.88;4941758;28;20286;-68
2021/12/12 00:12:04;;;;;;;20.47;16.67;;;;;;;0.43;100.00;98761.91;4983025;28;20960;-68
2021/12/12 00:14:34;;;;;;;20.97;16.50;;;;;;;0.44;100.00;98763.59;4979745;28;20294;-68
2021/12/12 00:17:04;;;;;;;22.40;16.97;;;;;;;0.36;100.00;98771.00;4998942;28;20617;-69
2021/12/12 00:19:35;;;;;;;31.57;19.20;;;;;;;0.35;100.00;98770.13;4981377;28;20589;-68
2021/12/12 00:22:08;;;;;;;23.80;17.93;;;;;;;0.39;100.00;98778.66;4992595;28;20236;-70
2021/12/12 00:24:37;;;;;;;24.07;16.83;;;;;;;0.36;100.00;98774.41;4956941;28;20601;-68
2021/12/12 00:27:06;;;;;;;19.50;15.37;;;;;;;0.39;100.00;98783.88;4967138;28;20762;-70
2021/12/12 00:29:34;;;;;;;20.93;16.43;;;;;;;0.32;100.00;98782.50;4994031;28;20208;-68
2021/12/12 00:32:06;;;;;;;19.57;14.83;;;;;;;0.39;100.00;98789.94;4981352;28;20217;-69
2021/12/12 00:34:38;;;;;;;27.47;20.20;;;;;;;0.39;100.00;98789.06;4994005;28;20233;-68
2021/12/12 00:37:08;;;;;;;19.47;16.27;;;;;;;0.39;100.00;98789.06;4985780;28;20440;-70
2021/12/12 00:39:38;;;;;;;23.70;17.93;;;;;;;0.35;100.00;98788.38;4973753;28;20533;-69
2021/12/12 00:42:09;;;;;;;26.57;18.70;;;;;;;0.37;100.00;98794.34;4961186;28;20228;-70
2021/12/12 00:44:39;;;;;;;23.33;16.87;;;;;;;0.46;100.00;98792.22;4966938;28;20310;-71
2021/12/12 00:47:09;;;;;;;27.90;20.20;;;;;;;0.49;100.00;98800.72;4998777;28;20278;-67
2021/12/12 00:49:40;;;;;;;24.03;17.57;;;;;;;0.48;100.00;98801.63;4978359;28;23547;-70
2021/12/12 00:52:10;;;;;;;19.83;16.23;;;;;;;0.47;100.00;98806.94;4984110;28;20644;-68
2021/12/12 00:54:39;;;;;;;20.43;15.63;;;;;;;0.49;100.00;98811.13;4991425;28;20233;-69
2021/12/12 00:57:11;;;;;;;29.50;19.03;;;;;;;0.54;100.00;98808.31;4955656;28;20221;-68
2021/12/12 00:59:41;;;;;;;19.63;15.07;;;;;;;0.45;100.00;98814.84;4981625;28;20220;-69
2021/12/12 01:02:11;;;;;;;22.80;17.20;;;;;;;0.46;100.00;98813.09;4982679;28;20625;-70
2021/12/12 01:04:43;;;;;;;20.30;15.83;;;;;;;0.57;100.00;98823.78;4995101;28;20315;-70
2021/12/12 01:07:15;;;;;;;17.97;15.13;;;;;;;0.51;100.00;98821.50;4985002;28;20213;-70
2021/12/12 01:09:53;;;;;;;17.67;15.13;;;;;;;0.51;100.00;98805.84;4976271;28;20379;-70
2021/12/12 01:12:25;;;;;;;21.10;16.80;;;;;;;0.47;100.00;98822.59;4958276;28;20231;-68
2021/12/12 01:14:56;;;;;;;20.20;15.07;;;;;;;0.51;100.00;98819.72;4983084;28;20239;-68
2021/12/12 01:17:27;;;;;;;20.93;14.93;;;;;;;0.60;100.00;98810.59;4994956;28;20213;-70
2021/12/12 01:19:59;;;;;;;18.80;14.70;;;;;;;0.59;100.00;98819.34;4988953;28;20705;-67
2021/12/12 01:22:32;;;;;;;18.60;14.40;;;;;;;0.52;100.00;98818.81;4981946;28;21516;-69
2021/12/12 01:25:05;;;;;;;21.93;15.53;;;;;;;0.47;100.00;98818.19;4991165;28;20228;-67
2021/12/12 01:27:33;;;;;;;19.70;15.50;;;;;;;0.49;100.00;98824.19;4959368;28;20227;-69
2021/12/12 01:30:01;;;;;;;17.43;15.07;;;;;;;0.59;100.00;98834.16;4978583;28;20209;-68
2021/12/12 01:32:32;;;;;;;19.40;15.90;;;;;;;0.57;100.00;98835.09;4993107;28;20208;-67
2021/12/12 01:35:13;;;;;;;17.93;14.10;;;;;;;0.55;100.00;98826.47;4991747;28;20714;-68
2021/12/12 01:37:51;;;;;;;24.37;16.47;;;;;;;0.69;100.00;98822.31;4965992;28;20212;-69
2021/12/12 01:40:25;;;;;;;20.77;15.03;;;;;;;0.63;100.00;98822.63;4991676;28;20649;-70
2021/12/12 01:42:57;;;;;;;21.83;15.47;;;;;;;0.64;100.00;98826.94;4955796;28;20220;-68
2021/12/12 01:45:30;;;;;;;17.80;15.03;;;;;;;0.68;100.00;98826.66;4986898;28;20204;-70
2021/12/12 01:48:01;;;;;;;19.90;14.47;;;;;;;0.60;100.00;98828.84;4978924;28;20781;-68
2021/12/12 01:50:37;;;;;;;23.13;14.40;;;;;;;0.68;100.00;98839.72;4994237;28;20581;-70
2021/12/12 01:53:07;;;;;;;24.37;14.43;;;;;;;0.72;100.00;98841.22;4978950;28;20522;-69
2021/12/12 01:55:38;;;;;;;19.57;14.30;;;;;;;0.77;100.00;98840.19;4977934;28;20229;-70
2021/12/12 01:58:10;;;;;;;19.47;14.50;;;;;;;0.70;100.00;98843.09;4954179;28;21940;-70
2021/12/12 02:00:44;;;;;;;22.73;14.23;;;;;;;0.84;100.00;98849.34;4973874;28;20499;-67
2021/12/12 02:03:16;;;;;;;19.27;14.83;;;;;;;0.76;100.00;98841.06;4988302;28;20566;-69
2021/12/12 02:05:46;;;;;;;16.73;13.87;;;;;;;0.77;100.00;98848.84;4993474;28;20232;-67
2021/12/12 02:08:16;;;;;;;20.73;15.60;;;;;;;0.76;100.00;98856.72;4970965;28;20213;-70
2021/12/12 02:10:47;;;;;;;23.07;13.67;;;;;;;0.76;100.00;98854.13;4993472;28;20699;-67
2021/12/12 02:13:17;;;;;;;18.63;14.43;;;;;;;0.80;100.00;98851.28;4957981;28;20565;-70
2021/12/12 02:15:48;;;;;;;16.93;14.67;;;;;;;0.80;100.00;98866.94;4994204;28;20554;-68
2021/12/12 02:18:21;;;;;;;17.13;13.50;;;;;;;0.91;100.00;98869.00;4983448;28;20318;-70
2021/12/12 02:21:06;;;;;;;19.67;14.00;;;;;;;0.80;100.00;98872.16;4993346;28;20692;-68
2021/12/12 02:23:50;;;;;;;20.53;13.83;;;;;;;0.80;100.00;98866.94;4980869;28;20240;-69
2021/12/12 02:37:32;;;;;;;17.67;13.03;;;;;;;0.85;100.00;98867.53;4989478;28;20208;-67
2021/12/12 02:40:02;;;;;;;20.87;13.27;;;;;;;0.75;100.00;98865.47;4986086;28;20462;-70
2021/12/12 02:42:32;;;;;;;17.37;13.13;;;;;;;0.74;100.00;98869.00;4979868;28;20311;-67
2021/12/12 02:45:01;;;;;;;16.13;13.87;;;;;;;0.74;100.00;98871.63;4961963;28;21537;-69
2021/12/12 02:47:34;;;;;;;19.93;13.50;;;;;;;0.80;100.00;98859.09;4976569;28;20205;-67
2021/12/12 02:50:13;;;;;;;16.57;14.53;;;;;;;0.93;100.00;98863.66;4989171;28;20288;-70
2021/12/12 02:52:43;;;;;;;17.23;14.13;;;;;;;0.89;100.00;98851.72;4979976;28;20543;-68
2021/12/12 02:55:17;;;;;;;20.07;13.60;;;;;;;0.79;100.00;98844.38;4987532;28;20379;-69
2021/12/12 02:57:46;;;;;;;17.47;12.73;;;;;;;0.79;100.00;98848.78;4992480;28;20213;-67
2021/12/12 03:00:18;;;;;;;19.07;14.33;;;;;;;0.88;100.00;98845.66;4944710;28;20581;-69
2021/12/12 03:02:48;;;;;;;23.50;14.63;;;;;;;0.81;100.00;98852.13;4992030;28;20228;-67
2021/12/12 03:05:21;;;;;;;16.37;14.63;;;;;;;0.81;100.00;98847.75;4973713;28;20216;-69
2021/12/12 03:07:49;;;;;;;20.63;14.30;;;;;;;0.80;100.00;98851.28;4994389;28;20264;-70
2021/12/12 03:10:23;;;;;;;20.50;14.73;;;;;;;0.85;100.00;98849.25;4997661;28;20296;-70
2021/12/12 03:12:52;;;;;;;21.37;13.60;;;;;;;0.82;100.00;98844.22;4973800;28;20970;-70
2021/12/12 03:15:22;;;;;;;16.07;14.13;;;;;;;0.80;100.00;98847.84;4962932;28;20223;-69
2021/12/12 03:17:52;;;;;;;17.93;14.00;;;;;;;0.82;100.00;98854.66;4977291;28;20621;-70
2021/12/12 03:20:24;;;;;;;16.50;13.80;;;;;;;0.82;100.00;98857.25;4987284;28;20339;-69
2021/12/12 03:22:55;;;;;;;17.93;12.87;;;;;;;0.93;100.00;98848.00;4978781;28;20451;-70
2021/12/12 03:25:25;;;;;;;15.57;13.40;;;;;;;0.89;100.00;98854.31;4995793;28;20242;-70
2021/12/12 03:27:54;;;;;;;18.93;13.63;;;;;;;0.80;100.00;98859.09;4982829;28;20509;-70
2021/12/12 03:30:22;;;;;;;17.70;13.93;;;;;;;0.85;100.00;98854.47;4982552;28;20216;-69
2021/12/12 03:32:50;;;;;;;18.80;14.80;;;;;;;0.85;100.00;98867.53;4959910;28;20213;-68
2021/12/12 03:35:19;;;;;;;18.37;14.10;;;;;;;0.74;100.00;98866.41;4979937;28;20400;-70
2021/12/12 03:37:47;;;;;;;24.90;14.47;;;;;;;0.74;100.00;98872.47;4992879;28;20755;-69
2021/12/12 03:40:19;;;;;;;17.93;13.57;;;;;;;0.70;100.00;98869.19;4995572;28;20229;-69
2021/12/12 03:42:50;;;;;;;17.97;13.83;;;;;;;0.70;100.00;98870.97;4976293;28;20363;-69
2021/12/12 03:45:19;;;;;;;17.80;13.97;;;;;;;0.74;100.00;98882.06;4996936;28;20209;-68
2021/12/12 03:47:52;;;;;;;19.17;13.63;;;;;;;0.70;100.00;98882.22;4943367;28;20216;-68
2021/12/12 03:50:23;;;;;;;20.77;13.63;;;;;;;0.77;100.00;98879.31;4983998;28;20590;-69
2021/12/12 03:52:52;;;;;;;19.53;14.20;;;;;;;0.73;100.00;98883.84;4975116;28;24093;-70
2021/12/12 03:55:21;;;;;;;17.77;13.27;;;;;;;0.84;100.00;98891.94;4997337;28;20216;-69
2021/12/12 03:57:50;;;;;;;15.23;13.07;;;;;;;0.86;100.00;98887.47;4981388;28;20549;-69
2021/12/12 04:00:21;;;;;;;15.70;13.20;;;;;;;0.79;100.00;98895.72;4980679;28;20585;-70
2021/12/12 04:02:49;;;;;;;15.67;12.73;;;;;;;0.88;100.00;98900.47;4954912;28;20217;-72
2021/12/12 04:05:17;;;;;;;15.17;13.00;;;;;;;0.99;100.00;98894.69;4976556;28;20517;-70
2021/12/12 04:07:46;;;;;;;13.60;10.80;;;;;;;1.00;100.00;98899.81;4973188;28;20213;-68
2021/12/12 04:10:19;;;;;;;12.63;10.83;;;;;;;1.01;100.00;98905.88;4980826;28;20716;-72
2021/12/12 04:12:48;;;;;;;13.57;9.43;;;;;;;1.08;100.00;98902.03;4980202;28;20609;-70
2021/12/12 04:15:18;;;;;;;11.07;10.00;;;;;;;1.06;100.00;98905.63;4995956;28;20859;-69
2021/12/12 04:17:47;;;;;;;15.00;10.07;;;;;;;1.14;100.00;98906.09;4955050;28;20626;-70
2021/12/12 04:20:19;;;;;;;9.13;7.83;;;;;;;1.11;100.00;98911.44;4974368;28;20240;-72
2021/12/12 04:22:47;;;;;;;11.33;9.10;;;;;;;1.09;100.00;98919.38;4942799;28;20721;-72
2021/12/12 04:25:15;;;;;;;9.63;8.27;;;;;;;1.01;100.00;98918.94;4961332;28;20226;-71
2021/12/12 04:27:44;;;;;;;7.70;7.00;;;;;;;0.95;100.00;98927.09;4956012;28;20198;-70
2021/12/12 04:30:15;;;;;;;7.97;7.17;;;;;;;0.84;100.00;98918.03;4975505;28;20210;-70
2021/12/12 04:32:47;;;;;;;7.10;6.37;;;;;;;0.80;100.00;98924.34;4941224;28;20205;-68
2021/12/12 04:35:17;;;;;;;8.47;6.43;;;;;;;0.79;100.00;98922.66;4961340;28;20490;-70
2021/12/12 04:37:47;;;;;;;8.60;6.73;;;;;;;0.74;100.00;98924.66;4940931;28;20650;-67
2021/12/12 04:40:17;;;;;;;10.57;6.63;;;;;;;0.68;100.00;98932.81;4943867;28;20686;-69
2021/12/12 04:42:47;;;;;;;7.63;6.83;;;;;;;0.62;100.00;98933.97;4974942;28;20244;-68
2021/12/12 04:45:26;;;;;;;7.57;6.87;;;;;;;0.64;100.00;98944.31;4961956;28;20214;-67
2021/12/12 04:50:52;;;;;;;9.20;7.47;;;;;;;0.61;100.00;98953.13;4973915;28;20236;-66
2021/12/12 04:53:28;;;;;;;7.93;6.70;;;;;;;0.50;100.00;98951.06;4962155;28;20638;-71
2021/12/12 04:56:05;;;;;;;11.13;6.73;;;;;;;0.51;100.00;98954.53;4976274;28;20865;-70
2021/12/12 04:58:37;;;;;;;6.50;6.00;;;;;;;0.53;100.00;98947.47;4954326;28;20980;-68
2021/12/12 05:01:07;;;;;;;8.83;6.23;;;;;;;0.40;100.00;98945.47;4973226;28;20617;-67
2021/12/12 05:03:43;;;;;;;6.50;5.90;;;;;;;0.41;100.00;98941.09;4923903;28;21028;-67
2021/12/12 05:06:14;;;;;;;5.80;5.40;;;;;;;0.31;100.00;98952.91;4969183;28;20686;-69
2021/12/12 05:08:48;;;;;;;6.50;5.20;;;;;;;0.28;100.00;98954.75;4945001;28;20452;-72
2021/12/12 05:11:22;;;;;;;6.37;5.00;;;;;;;0.16;100.00;98951.88;4973022;28;20206;-69
2021/12/12 05:13:52;;;;;;;5.77;5.20;;;;;;;0.07;100.00;98967.06;4959061;28;21442;-68
2021/12/12 05:16:25;;;;;;;6.10;5.23;;;;;;;-0.02;100.00;98970.94;4955669;28;20521;-70
2021/12/12 05:19:04;;;;;;;6.20;4.70;;;;;;;-0.16;100.00;98971.59;4975423;28;20214;-71
2021/12/12 05:21:40;;;;;;;5.87;5.23;;;;;;;-0.19;100.00;98970.88;4940516;28;20586;-71
2021/12/12 05:24:10;;;;;;;5.00;4.57;;;;;;;-0.19;100.00;98963.06;4960732;28;20499;-71
2021/12/12 05:26:41;;;;;;;6.00;4.80;;;;;;;-0.28;100.00;98963.50;4957879;28;20240;-77
2021/12/12 05:29:14;;;;;;;5.37;4.87;;;;;;;-0.35;100.00;98966.41;4957891;28;20221;-78
2021/12/12 05:31:47;;;;;;;4.93;4.60;;;;;;;-0.31;100.00;98972.31;4960121;28;20221;-77
2021/12/12 05:34:18;;;;;;;4.90;4.13;;;;;;;-0.34;100.00;98973.28;4938336;28;20241;-76
2021/12/12 05:36:46;;;;;;;4.50;4.07;;;;;;;-0.30;100.00;98974.84;4937534;28;20472;-74
2021/12/12 05:39:15;;;;;;;4.20;3.90;;;;;;;-0.35;100.00;98983.78;4948440;28;20461;-79
2021/12/12 05:41:43;;;;;;;6.30;4.33;;;;;;;-0.43;100.00;98978.94;4960232;28;21050;-72
2021/12/12 05:44:12;;;;;;;5.07;4.50;;;;;;;-0.47;100.00;98990.41;4940564;28;21007;-73
2021/12/12 05:46:40;;;;;;;4.93;4.43;;;;;;;-0.54;100.00;98981.19;4959852;28;20444;-75
2021/12/12 05:49:08;;;;;;;5.30;4.67;;;;;;;-0.53;100.00;98980.28;4973984;28;20471;-74
2021/12/12 05:51:38;;;;;;;6.43;4.53;;;;;;;-0.54;100.00;98983.78;4935137;28;20445;-75
2021/12/12 05:54:07;;;;;;;6.27;4.37;;;;;;;-0.54;100.00;98982.00;4972698;28;20244;-75
2021/12/12 05:56:37;;;;;;;5.33;4.37;;;;;;;-0.56;100.00;98990.81;4945539;28;20220;-76
2021/12/12 05:59:07;;;;;;;5.20;4.30;;;;;;;-0.49;100.00;98989.63;4960689;28;20542;-74
2021/12/12 06:01:35;;;;;;;4.57;4.27;;;;;;;-0.48;100.00;98994.75;4942324;28;20225;-75
2021/12/12 06:04:04;;;;;;;4.53;4.23;;;;;;;-0.53;100.00;99007.13;4976573;28;20465;-75
2021/12/12 06:06:36;;;;;;;6.33;3.83;;;;;;;-0.50;100.00;99000.97;4930007;28;20848;-79
2021/12/12 06:09:08;;;;;;;6.07;4.63;;;;;;;-0.49;100.00;99010.47;4975131;28;20208;-76
2021/12/12 06:11:38;;;;;;;4.50;4.10;;;;;;;-0.52;100.00;99010.59;4957398;28;20461;-79
2021/12/12 06:14:07;;;;;;;4.70;4.30;;;;;;;-0.56;100.00;99014.25;4957458;28;20479;-76
2021/12/12 06:16:37;;;;;;;4.90;4.50;;;;;;;-0.52;100.00;99027.06;4951587;28;20308;-80
2021/12/12 06:19:08;;;;;;;8.47;4.77;;;;;;;-0.45;100.00;99030.25;4960002;28;20233;-79
2021/12/12 06:21:36;;;;;;;4.57;4.27;;;;;;;-0.36;100.00;99032.44;4937572;28;20300;-80
2021/12/12 06:24:06;;;;;;;5.03;4.63;;;;;;;-0.36;100.00;99042.03;4973476;28;20877;-77
2021/12/12 06:26:35;;;;;;;7.17;4.27;;;;;;;-0.23;100.00;99042.28;4948302;28;20217;-80
2021/12/12 06:29:04;;;;;;;5.17;4.77;;;;;;;-0.32;100.00;99038.34;4974328;28;20913;-74
2021/12/12 06:31:32;;;;;;;5.77;4.53;;;;;;;-0.36;100.00;99047.22;4938407;28;20213;-79
2021/12/12 06:34:00;;;;;;;9.47;4.57;;;;;;;-0.33;100.00;99045.31;4972086;28;20232;-80
2021/12/12 06:36:29;;;;;;;4.70;4.30;;;;;;;-0.32;100.00;99049.59;4965485;28;20205;-80
2021/12/12 06:38:57;;;;;;;4.63;4.30;;;;;;;-0.34;100.00;99048.00;4936080;28;20230;-79
2021/12/12 06:41:26;;;;;;;4.27;3.97;;;;;;;-0.33;100.00;99055.72;4969848;28;20217;-83
2021/12/12 06:43:56;;;;;;;5.27;4.53;;;;;;;-0.31;100.00;99050.47;4952167;28;20328;-78
2021/12/12 06:46:25;;;;;;;5.13;4.73;;;;;;;-0.30;100.00;99050.38;4962464;28;20217;-80
2021/12/12 06:48:53;;;;;;;4.37;3.97;;;;;;;-0.31;100.00;99051.31;4949840;28;20531;-79
2021/12/12 06:51:21;;;;;;;4.77;4.37;;;;;;;-0.32;100.00;99056.59;4968459;28;20738;-83
2021/12/12 06:53:50;;;;;;;7.77;5.03;;;;;;;-0.31;100.00;99061.72;4943462;28;20575;-80
2021/12/12 06:56:20;;;;;;;4.53;4.23;;;;;;;-0.28;100.00;99059.88;4954628;28;20441;-77
2021/12/12 06:58:51;;;;;;;6.90;4.23;;;;;;;-0.44;100.00;99060.59;4948381;28;20402;-77
2021/12/12 07:01:21;;;;;;;4.57;4.13;;;;;;;-0.57;100.00;99062.03;4947951;28;20666;-73
2021/12/12 07:03:51;;;;;;;4.13;3.83;;;;;;;-0.74;100.00;99061.88;4958259;28;20233;-76
2021/12/12 07:06:21;;;;;;;5.17;4.50;;;;;;;-0.80;100.00;99063.88;4973131;28;20224;-74
2021/12/12 07:08:50;;;;;;;4.80;4.40;;;;;;;-0.95;100.00;99054.97;4949314;28;20656;-73
2021/12/12 07:11:19;;;;;;;4.37;4.03;;;;;;;-1.07;100.00;99056.31;4942605;28;20495;-75
2021/12/12 07:13:50;;;;;;;4.37;3.80;;;;;;;-1.19;100.00;99061.13;4966780;28;20234;-74
2021/12/12 07:16:19;;;;;;;4.53;4.13;;;;;;;-1.06;100.00;99065.81;4964925;28;20537;-75
2021/12/12 07:18:49;;;;;;;5.83;4.37;;;;;;;-1.04;100.00;99069.19;4965281;28;20308;-76
2021/12/12 07:21:20;;;;;;;4.73;4.33;;;;;;;-1.06;100.00;99068.41;4976957;28;20847;-69
2021/12/12 07:23:49;;;;;;;5.63;5.10;;;;;;;-1.15;100.00;99079.22;4977506;28;20610;-70
2021/12/12 07:26:18;;;;;;;5.13;4.63;;;;;;;-1.21;100.00;99083.75;4941291;28;20236;-71
2021/12/12 07:28:47;;;;;;;6.50;6.00;;;;;;;-1.14;100.00;99088.72;4966633;28;20217;-71
2021/12/12 07:31:19;;;;;;;7.17;5.40;;;;;;;-0.84;100.00;99093.56;4946244;28;20268;-72
2021/12/12 07:33:50;;;;;;;7.17;5.57;;;;;;;-0.68;100.00;99086.78;4969271;28;20467;-79
2021/12/12 07:36:19;;;;;;;6.40;5.73;;;;;;;-0.80;100.00;99088.13;4960636;28;20461;-75
2021/12/12 07:38:49;;;;;;;5.40;4.97;;;;;;;-0.98;100.00;99088.91;4963989;28;20216;-76
2021/12/12 07:41:21;;;;;;;5.83;5.30;;;;;;;-1.08;100.00;99085.84;4946275;28;22578;-74
2021/12/12 07:43:49;;;;;;;5.90;5.33;;;;;;;-1.11;100.00;99083.38;4976264;28;20231;-79
2021/12/12 07:46:19;;;;;;;5.93;5.40;;;;;;;-1.22;100.00;99083.81;4948188;28;20797;-73
2021/12/12 07:48:49;;;;;;;8.07;6.00;;;;;;;-1.30;100.00;99078.94;4961057;28;20212;-77
2021/12/12 07:51:18;;;;;;;4.93;4.23;;;;;;;-1.37;100.00;99080.94;4962614;28;20411;-74
2021/12/12 07:53:49;;;;;;;5.40;4.93;;;;;;;-1.37;100.00;99085.28;4961905;28;20221;-78
2021/12/12 07:56:18;;;;;;;7.07;4.83;;;;;;;-1.40;100.00;99082.78;4974265;28;20536;-74
2021/12/12 07:58:46;;;;;;;5.53;5.13;;;;;;;-1.43;100.00;99077.72;4945854;28;20216;-76
2021/12/12 08:01:14;;;;;;;8.37;5.43;;;;;;;-1.47;100.00;99088.25;4943466;28;20365;-72
2021/12/12 08:03:45;;;;;;;5.33;4.93;;;;;;;-1.49;100.00;99079.66;4977195;28;20517;-73
2021/12/12 08:06:15;;;;;;;6.43;5.77;;;;;;;-1.35;100.00;99079.13;4951633;28;20456;-72
2021/12/12 08:08:44;;;;;;;6.13;5.53;;;;;;;-1.36;100.00;99079.16;4976984;28;20449;-74
2021/12/12 08:11:16;;;;;;;5.70;5.17;;;;;;;-1.28;100.00;99086.66;4959350;28;20320;-71
2021/12/12 08:13:45;;;;;;;6.07;5.47;;;;;;;-1.20;100.00;99084.59;4946671;28;20701;-75
2021/12/12 08:16:14;;;;;;;6.60;5.90;;;;;;;-1.15;100.00;99079.22;4961313;28;20466;-72
2021/12/12 08:18:44;;;;;;;9.80;5.93;;;;;;;-1.07;100.00;99088.41;4949458;28;20224;-73
2021/12/12 08:21:14;;;;;;;6.30;5.60;;;;;;;-0.99;100.00;99079.44;4951870;28;20650;-69
2021/12/12 08:23:43;;;;;;;6.20;5.47;;;;;;;-0.98;100.00;99088.91;4965661;28;20233;-72
2021/12/12 08:26:12;;;;;;;5.70;5.20;;;;;;;-0.82;100.00;99081.31;4973525;28;20217;-73
2021/12/12 08:28:42;;;;;;;7.77;6.77;;;;;;;-0.86;100.00;99084.97;4940602;28;20308;-73
2021/12/12 08:31:12;;;;;;;5.40;4.97;;;;;;;-0.82;100.00;99079.53;4959019;28;20206;-73
2021/12/12 08:33:42;;;;;;;5.70;5.13;;;;;;;-0.61;100.00;99084.75;4951110;28;20328;-71
2021/12/12 08:36:11;;;;;;;6.37;5.87;;;;;;;-0.60;100.00;99078.63;4963709;28;20468;-70
2021/12/12 08:38:39;;;;;;;6.87;6.27;;;;;;;-0.54;100.00;99077.53;4966528;28;20206;-72
2021/12/12 08:41:09;;;;;;;9.10;5.63;;;;;;;-0.48;100.00;99088.50;4955164;28;20633;-71
2021/12/12 08:43:39;;;;;;;6.93;5.90;;;;;;;-0.39;100.00;99092.47;4958085;28;20260;-73
2021/12/12 08:46:10;;;;;;;6.80;5.93;;;;;;;-0.26;100.00;99091.94;4943189;28;23358;-73
2021/12/12 08:48:41;;;;;;;6.20;5.50;;;;;;;-0.13;100.00;99087.88;4958563;28;20214;-73
2021/12/12 08:51:14;;;;;;;8.67;6.30;;;;;;;-0.03;100.00;99099.56;4960986;28;20980;-75
2021/12/12 08:53:45;;;;;;;6.53;5.77;;;;;;;0.13;100.00;99088.44;4957759;28;20465;-73
2021/12/12 08:56:19;;;;;;;6.70;6.00;;;;;;;0.21;100.00;99091.53;4965377;28;20209;-72
2021/12/12 08:58:48;;;;;;;7.50;6.83;;;;;;;0.48;100.00;99091.16;4930459;28;20213;-73
2021/12/12 09:01:18;;;;;;;7.40;6.63;;;;;;;0.57;100.00;99089.88;4972482;28;20590;-71
2021/12/12 09:03:53;;;;;;;7.80;7.00;;;;;;;0.69;100.00;99097.09;4946434;28;20284;-75
2021/12/12 09:06:27;;;;;;;7.50;6.70;;;;;;;0.72;100.00;99099.56;4964037;28;20832;-74
2021/12/12 09:08:58;;;;;;;7.57;5.77;;;;;;;0.68;100.00;99105.84;4957040;28;20339;-74
2021/12/12 09:11:29;;;;;;;9.00;6.23;;;;;;;0.68;100.00;99097.19;4956794;28;20428;-75
2021/12/12 09:14:02;;;;;;;5.77;5.10;;;;;;;0.69;100.00;99093.66;4972100;28;20229;-73
2021/12/12 09:16:36;;;;;;;5.60;5.10;;;;;;;0.65;100.00;99092.94;4945614;28;20221;-74
2021/12/12 09:19:07;;;;;;;6.77;5.00;;;;;;;0.76;100.00;99095.03;4956106;28;20951;-72
2021/12/12 09:21:49;;;;;;;5.77;5.33;;;;;;;0.85;100.00;99094.59;4962292;28;20213;-72
2021/12/12 09:24:24;;;;;;;5.67;5.13;;;;;;;1.10;100.00;99088.16;4957899;28;20616;-73
2021/12/12 09:26:55;;;;;;;7.93;5.87;;;;;;;1.32;100.00;99086.22;4965014;28;20217;-73
2021/12/12 09:29:27;;;;;;;7.10;5.23;;;;;;;1.61;100.00;99089.94;4919895;28;20396;-74
2021/12/12 09:32:00;;;;;;;4.87;4.50;;;;;;;1.72;100.00;99081.53;4961020;28;20213;-74
2021/12/12 09:34:34;;;;;;;5.67;5.27;;;;;;;1.85;100.00;99063.44;4945904;28;20229;-75
2021/12/12 09:37:19;;;;;;;4.97;4.57;;;;;;;1.83;100.00;99062.69;4959179;28;20540;-73
2021/12/12 09:39:57;;;;;;;6.43;5.13;;;;;;;1.96;100.00;99071.53;4973047;28;20397;-76
2021/12/12 09:42:35;;;;;;;6.17;5.07;;;;;;;1.93;100.00;99065.66;4961996;28;20587;-73
2021/12/12 09:45:11;;;;;;;4.43;4.10;;;;;;;1.80;100.00;99070.69;4975449;28;20630;-73
2021/12/12 09:48:14;;;;;;;4.67;4.27;;;;;;;1.97;100.00;99059.31;4940800;28;20328;-75
2021/12/12 09:53:58;;;;;;;6.33;4.37;;;;;;;2.16;100.00;99046.91;4961829;28;20229;-75
2021/12/12 09:56:33;;;;;;;4.50;3.97;;;;;;;2.35;100.00;99047.66;4953498;28;20690;-73
2021/12/12 09:59:05;;;;;;;4.10;3.90;;;;;;;2.56;100.00;99049.09;4975775;28;20750;-73
2021/12/12 10:01:38;;;;;;;6.00;4.47;;;;;;;2.65;100.00;99039.88;4944518;28;20210;-73
2021/12/12 10:04:18;;;;;;;4.63;3.73;;;;;;;2.69;100.00;99048.38;4956270;28;20291;-73
2021/12/12 10:06:50;;;;;;;4.23;3.87;;;;;;;2.74;100.00;99047.19;4963205;28;20827;-75
2021/12/12 10:09:25;;;;;;;4.57;3.83;;;;;;;2.86;100.00;99032.56;4949547;28;20610;-72
2021/12/12 10:11:59;;;;;;;3.70;3.50;;;;;;;2.89;100.00;99029.75;4961980;28;20531;-73
2021/12/12 10:14:31;;;;;;;3.70;3.40;;;;;;;2.98;100.00;99027.53;4966077;28;20317;-73
2021/12/12 10:17:06;;;;;;;5.33;4.10;;;;;;;2.92;100.00;99028.72;4973239;28;20477;-72
2021/12/12 10:19:44;;;;;;;4.10;3.83;;;;;;;3.08;100.00;99026.03;4939830;28;20212;-73
2021/12/12 10:22:24;;;;;;;3.20;3.00;;;;;;;3.04;100.00;99024.53;4960474;28;20213;-74
2021/12/12 10:25:01;;;;;;;4.07;3.70;;;;;;;2.91;100.00;99029.66;4965888;28;20338;-73
2021/12/12 10:27:34;;;;;;;4.60;3.70;;;;;;;2.88;100.00;99025.47;4950110;28;20556;-72
2021/12/12 10:30:10;;;;;;;3.60;3.30;;;;;;;3.13;100.00;99028.41;4975112;28;20206;-75
2021/12/12 10:32:47;;;;;;;6.77;3.67;;;;;;;3.24;100.00;99031.22;4937957;28;20799;-72
2021/12/12 10:35:18;;;;;;;3.13;2.93;;;;;;;3.27;100.00;99027.59;4973929;28;20228;-73
2021/12/12 10:37:53;;;;;;;7.77;3.70;;;;;;;3.15;100.00;99024.75;4952010;28;20428;-75
2021/12/12 10:40:28;;;;;;;5.50;3.60;;;;;;;3.22;100.00;99016.50;4959065;28;20217;-73
2021/12/12 10:43:00;;;;;;;4.33;3.93;;;;;;;3.27;100.00;99027.59;4962272;28;20736;-73
2021/12/12 10:45:31;;;;;;;3.90;3.60;;;;;;;3.36;100.00;99016.53;4964960;28;20236;-73
2021/12/12 10:48:01;;;;;;;5.80;3.90;;;;;;;3.35;100.00;99012.25;4947057;28;20851;-72
2021/12/12 10:50:41;;;;;;;6.07;3.87;;;;;;;3.28;100.00;99019.63;4964066;28;20209;-72
2021/12/12 10:53:13;;;;;;;4.03;3.70;;;;;;;3.37;100.00;99004.25;4967212;28;20233;-73
2021/12/12 10:55:47;;;;;;;5.73;4.60;;;;;;;3.34;100.00;99007.94;4957291;28;20693;-75
2021/12/12 10:58:19;;;;;;;4.27;3.80;;;;;;;3.29;100.00;98989.03;4963072;28;20210;-73
2021/12/12 11:00:51;;;;;;;4.33;3.60;;;;;;;3.19;100.00;98992.19;4965117;28;20419;-73
2021/12/12 11:03:23;;;;;;;4.40;3.90;;;;;;;3.35;100.00;99003.50;4940008;28;20240;-73
2021/12/12 11:05:56;;;;;;;5.10;4.60;;;;;;;3.15;100.00;99009.03;4959737;28;20793;-71
2021/12/12 11:08:28;;;;;;;6.27;4.97;;;;;;;3.18;100.00;99000.16;4943923;28;20527;-73
2021/12/12 11:11:10;;;;;;;5.10;4.70;;;;;;;3.38;100.00;99000.72;4959427;28;20715;-72
2021/12/12 11:13:42;;;;;;;4.57;4.27;;;;;;;3.47;100.00;99003.63;4927021;28;20464;-73
2021/12/12 11:16:14;;;;;;;5.43;4.93;;;;;;;3.60;100.00;99008.13;4952528;28;20217;-73
2021/12/12 11:18:46;;;;;;;4.83;4.10;;;;;;;3.69;100.00;98999.69;4940697;28;20682;-72
2021/12/12 11:21:23;;;;;;;6.30;5.20;;;;;;;3.84;100.00;98999.66;4965764;28;20214;-74
2021/12/12 11:23:54;;;;;;;4.87;4.40;;;;;;;3.92;100.00;98986.91;4956976;28;20632;-71
2021/12/12 11:26:29;;;;;;;7.10;4.40;;;;;;;4.11;100.00;98989.19;4972925;28;20260;-73
2021/12/12 11:29:01;;;;;;;4.87;4.13;;;;;;;4.14;100.00;98991.59;4961729;28;20748;-73
2021/12/12 11:31:35;;;;;;;4.43;4.10;;;;;;;4.39;100.00;98981.34;4931439;28;20214;-75
2021/12/12 11:34:06;;;;;;;5.27;4.77;;;;;;;4.37;100.00;98978.78;4939887;28;20225;-72
2021/12/12 11:36:37;;;;;;;4.93;4.43;;;;;;;4.41;100.00;98988.16;4962251;28;20440;-73
2021/12/12 11:39:15;;;;;;;4.53;4.17;;;;;;;4.31;100.00;98984.44;4954845;28;20225;-71
2021/12/12 11:41:55;;;;;;;4.73;4.40;;;;;;;4.34;100.00;98986.88;4955296;28;20218;-71
2021/12/12 11:44:30;;;;;;;5.77;3.90;;;;;;;4.10;100.00;98994.53;4952532;28;20229;-72
2021/12/12 11:47:07;;;;;;;4.37;4.07;;;;;;;4.21;100.00;98994.69;4945177;28;20599;-73
2021/12/12 11:49:51;;;;;;;4.63;4.07;;;;;;;4.48;100.00;98996.47;4918143;28;20377;-74
2021/12/12 11:52:35;;;;;;;3.87;3.43;;;;;;;4.29;100.00;99000.28;4959134;28;20225;-71
2021/12/12 11:55:08;;;;;;;5.20;3.37;;;;;;;3.95;100.00;98996.34;4971109;28;20630;-73
2021/12/12 11:57:44;;;;;;;4.83;3.90;;;;;;;4.12;100.00;98990.88;4959751;28;20702;-70
2021/12/12 12:00:16;;;;;;;4.60;3.53;;;;;;;4.12;100.00;98980.38;4957134;28;20448;-73
2021/12/12 12:02:52;;;;;;;6.20;3.53;;;;;;;4.28;100.00;98980.22;4946612;28;20221;-70